Terminal Aerodrome Forecast
Issued by NWS Chicago, IL

Home | Current Version | Previous Version | Graphics & Text | Print | Product List | Glossary On
Versions: 1 2 3 4 5 6 7 8 9 10 11 12 13 14 15 16 17 18 19 20 21 22 23 24 25 26 27 28 29 30 31
000
FTUS43 KLOT 292002 AAA
TAFRFD
TAF AMD
KRFD 292002Z 2920/3018 30005KT P6SM VCSH BKN025 BKN110
      TEMPO 2920/2923 5SM -TSRA BR BKN020CB
     FM300100 VRB03KT P6SM BKN035
     FM300330 28005KT 5SM -SHRA BR BKN010 OVC018
     FM300700 30006KT 3SM BR VCSH SCT010 BKN030 OVC120
     FM301400 29009KT P6SM BKN035=

USA.gov is the U.S. government's official web portal to all federal, state and local government web resources and services.